Time;durP1;ratioP1;P1;durP2;ratioP2;P2;SDS_P1;SDS_P2;PMS_P1;PMS_P2;Temp;Humidity;BMP_temperature;BMP_pressure;BME280_temperature;BME280_humidity;BME280_pressure;Samples;Min_cycle;Max_cycle;Signal;HPM_P1;HPM_P2
2022/09/25 00:00:54;;;;;;;1.85;1.70;;;23.20;66.40;;;;;;5050708;28;20367;-49
2022/09/25 00:03:21;;;;;;;2.13;1.52;;;23.20;66.50;;;;;;5055226;28;20068;-49
2022/09/25 00:05:47;;;;;;;6.60;2.30;;;23.20;66.40;;;;;;5060762;28;20021;-47
2022/09/25 00:08:15;;;;;;;2.92;1.73;;;23.20;66.40;;;;;;5051360;28;20064;-49
2022/09/25 00:10:43;;;;;;;2.42;1.85;;;23.20;66.80;;;;;;5057909;28;20040;-47
2022/09/25 00:13:09;;;;;;;5.47;1.83;;;23.20;66.20;;;;;;5044967;28;20049;-49
2022/09/25 00:15:36;;;;;;;2.92;1.83;;;23.20;66.20;;;;;;5060375;28;20047;-46
2022/09/25 00:18:01;;;;;;;2.28;1.95;;;23.20;66.30;;;;;;5045012;28;20060;-49
2022/09/25 00:20:27;;;;;;;3.58;1.95;;;23.20;66.30;;;;;;5069351;28;20024;-48
2022/09/25 00:22:53;;;;;;;2.33;1.98;;;23.20;66.30;;;;;;5045093;28;20118;-48
2022/09/25 00:25:19;;;;;;;3.13;1.77;;;23.20;66.20;;;;;;5052870;28;20386;-47
2022/09/25 00:27:45;;;;;;;2.45;1.77;;;23.20;66.20;;;;;;5041584;28;20049;-45
2022/09/25 00:30:12;;;;;;;2.20;1.85;;;23.20;66.20;;;;;;5062644;28;20024;-48
2022/09/25 00:32:38;;;;;;;2.85;1.95;;;23.20;66.20;;;;;;5051692;28;20064;-49
2022/09/25 00:35:05;;;;;;;2.83;1.83;;;23.20;66.10;;;;;;5049722;28;20118;-49
2022/09/25 00:37:35;;;;;;;2.67;2.03;;;23.20;66.10;;;;;;5067374;28;20554;-54
2022/09/25 00:40:01;;;;;;;2.33;2.03;;;23.20;65.90;;;;;;5068116;28;20569;-50
2022/09/25 00:42:27;;;;;;;2.17;1.90;;;23.10;65.30;;;;;;5069424;28;20021;-50
2022/09/25 00:44:55;;;;;;;3.38;2.08;;;23.10;65.20;;;;;;5065654;28;20070;-52
2022/09/25 00:47:39;;;;;;;2.75;1.95;;;23.00;65.40;;;;;;5061022;28;20033;-52
2022/09/25 00:50:18;;;;;;;1.92;1.70;;;23.00;65.30;;;;;;5054358;28;20108;-47
2022/09/25 01:01:15;;;;;;;2.35;1.65;;;22.90;65.20;;;;;;5301002;22;20079;-47
2022/09/25 01:03:43;;;;;;;2.63;1.70;;;22.80;65.40;;;;;;5042292;28;20041;-53
2022/09/25 01:06:10;;;;;;;2.47;1.55;;;22.80;65.50;;;;;;5042657;28;20021;-52
2022/09/25 01:08:38;;;;;;;2.15;1.60;;;22.80;65.30;;;;;;5046810;28;20029;-50
2022/09/25 01:11:04;;;;;;;2.50;1.75;;;22.80;65.20;;;;;;5052297;28;20032;-51
2022/09/25 01:13:29;;;;;;;2.53;1.80;;;22.70;65.30;;;;;;5050812;28;20021;-45
2022/09/25 01:15:58;;;;;;;2.33;1.80;;;22.70;65.30;;;;;;5052198;28;20032;-50
2022/09/25 01:18:56;;;;;;;2.55;2.22;;;22.70;65.40;;;;;;5050544;28;20037;-53
2022/09/25 01:21:28;;;;;;;3.67;1.80;;;22.70;65.40;;;;;;5051619;28;20094;-50
2022/09/25 01:24:31;;;;;;;2.38;1.70;;;22.70;65.40;;;;;;5044944;28;20048;-51
2022/09/25 01:27:23;;;;;;;2.33;1.70;;;22.70;65.30;;;;;;4969714;28;20071;-53
2022/09/25 01:29:55;;;;;;;2.55;1.90;;;22.70;65.50;;;;;;5044943;28;20212;-51
2022/09/25 01:32:48;;;;;;;4.38;1.98;;;22.70;65.60;;;;;;5049216;28;20037;-52
2022/09/25 01:35:17;;;;;;;2.25;1.52;;;22.60;65.50;;;;;;5042357;28;20083;-53
2022/09/25 01:38:11;;;;;;;2.63;1.67;;;22.60;65.40;;;;;;5050821;28;20064;-51
2022/09/25 01:40:50;;;;;;;1.85;1.50;;;22.60;65.40;;;;;;5051073;28;20033;-56
2022/09/25 01:43:24;;;;;;;2.55;1.77;;;22.60;65.40;;;;;;5050101;28;20082;-49
2022/09/25 01:45:52;;;;;;;2.33;1.80;;;22.60;65.40;;;;;;5051139;28;20644;-50
2022/09/25 01:48:24;;;;;;;2.55;2.10;;;22.60;65.20;;;;;;5049869;28;20033;-53
2022/09/25 01:51:00;;;;;;;2.58;1.77;;;22.60;65.40;;;;;;5036931;28;20302;-53
2022/09/25 01:53:32;;;;;;;2.15;1.60;;;22.60;65.20;;;;;;5050540;28;20462;-53
2022/09/25 01:56:05;;;;;;;1.75;1.60;;;22.60;65.00;;;;;;5051075;28;20053;-53
2022/09/25 01:58:40;;;;;;;10.68;2.33;;;22.60;65.40;;;;;;5048730;28;20087;-46
2022/09/25 02:01:32;;;;;;;2.38;1.75;;;22.50;65.20;;;;;;5051385;28;20077;-52
2022/09/25 02:04:02;;;;;;;;;;;22.50;65.40;;;;;;5033090;28;20405;-51
2022/09/25 02:06:31;;;;;;;2.97;2.20;;;22.50;65.40;;;;;;5051110;28;19955;-51
2022/09/25 02:09:03;;;;;;;1.65;1.55;;;22.50;65.30;;;;;;5044044;28;20029;-52
2022/09/25 02:11:32;;;;;;;2.60;2.22;;;22.50;65.30;;;;;;5050066;28;20055;-52
2022/09/25 02:14:14;;;;;;;1.88;1.73;;;22.50;65.30;;;;;;5050056;28;20021;-51
2022/09/25 02:16:43;;;;;;;3.63;2.15;;;22.50;65.20;;;;;;5048515;28;20037;-51
2022/09/25 02:22:23;;;;;;;1.98;1.60;;;22.50;65.30;;;;;;5049155;28;20032;-52
2022/09/25 02:24:59;;;;;;;2.35;1.60;;;22.50;65.20;;;;;;5049636;28;20028;-51
2022/09/25 02:27:26;;;;;;;2.38;1.90;;;22.50;65.30;;;;;;5050126;28;20508;-53
2022/09/25 02:29:53;;;;;;;2.78;1.58;;;22.50;65.20;;;;;;5049344;28;20658;-51
2022/09/25 02:32:24;;;;;;;1.98;1.60;;;22.50;65.20;;;;;;5050917;28;20395;-53
2022/09/25 02:34:51;;;;;;;2.25;1.90;;;22.50;65.30;;;;;;5049526;28;20473;-50
2022/09/25 02:37:17;;;;;;;3.05;2.15;;;22.50;65.30;;;;;;5048583;28;20060;-48
2022/09/25 02:39:50;;;;;;;1.98;1.50;;;22.40;65.20;;;;;;5045383;28;20037;-50
2022/09/25 02:42:30;;;;;;;2.88;1.75;;;22.50;65.20;;;;;;5050209;28;20051;-52
2022/09/25 02:45:20;;;;;;;2.40;2.05;;;22.50;65.20;;;;;;5049650;28;20853;-49
2022/09/25 02:48:01;;;;;;;2.40;1.90;;;22.50;65.30;;;;;;5048669;28;20083;-53
2022/09/25 02:50:35;;;;;;;1.95;1.58;;;22.40;65.20;;;;;;5052576;28;20108;-53
2022/09/25 02:53:12;;;;;;;3.13;1.98;;;22.50;65.20;;;;;;5052368;28;20024;-50
2022/09/25 02:56:02;;;;;;;2.78;1.63;;;22.40;65.10;;;;;;5050933;28;20051;-50
2022/09/25 02:58:51;;;;;;;2.47;1.80;;;22.40;65.10;;;;;;5053418;28;20065;-54
2022/09/25 03:01:19;;;;;;;2.95;1.70;;;22.40;65.10;;;;;;5036493;28;20435;-50
2022/09/25 03:03:46;;;;;;;2.03;1.52;;;22.40;65.10;;;;;;5052902;28;20430;-52
2022/09/25 03:06:12;;;;;;;2.85;1.77;;;22.40;65.10;;;;;;5055350;28;20029;-50
2022/09/25 03:08:42;;;;;;;3.08;1.92;;;22.40;65.00;;;;;;5049863;28;20040;-46
2022/09/25 03:11:16;;;;;;;3.40;1.92;;;22.40;65.00;;;;;;5054556;28;20116;-51
2022/09/25 03:13:43;;;;;;;3.17;1.83;;;22.40;64.80;;;;;;5052441;28;20550;-49
2022/09/25 03:16:20;;;;;;;2.17;1.65;;;22.40;64.80;;;;;;5051926;28;20104;-50
2022/09/25 03:18:46;;;;;;;2.53;1.83;;;22.40;65.00;;;;;;5053298;28;20041;-53
2022/09/25 03:21:12;;;;;;;3.67;2.05;;;22.40;64.90;;;;;;5054328;28;20476;-52
2022/09/25 03:23:38;;;;;;;2.30;1.80;;;22.40;64.80;;;;;;5051824;28;20069;-47
2022/09/25 03:26:04;;;;;;;2.40;1.75;;;22.40;64.80;;;;;;5052262;28;20445;-54
2022/09/25 03:28:31;;;;;;;2.75;1.85;;;22.40;64.70;;;;;;5053650;28;20393;-54
2022/09/25 03:31:02;;;;;;;2.13;1.55;;;22.40;64.70;;;;;;5053363;28;20029;-53
2022/09/25 03:33:33;;;;;;;2.97;1.65;;;22.40;64.70;;;;;;5053819;28;20083;-52
2022/09/25 03:36:01;;;;;;;2.23;1.60;;;22.40;64.70;;;;;;5053670;28;20474;-52
2022/09/25 03:38:27;;;;;;;2.47;1.85;;;22.30;64.60;;;;;;5053533;28;20301;-51
2022/09/25 03:40:53;;;;;;;2.63;2.00;;;22.40;64.60;;;;;;5050539;28;20102;-52
2022/09/25 03:43:18;;;;;;;2.72;1.95;;;22.40;64.60;;;;;;5053161;28;20115;-51
2022/09/25 03:45:44;;;;;;;2.17;1.55;;;22.40;64.50;;;;;;5053597;28;20031;-52
2022/09/25 03:48:09;;;;;;;2.05;1.85;;;22.40;64.50;;;;;;5053664;28;20397;-49
2022/09/25 03:50:35;;;;;;;2.30;1.83;;;22.40;64.50;;;;;;5052719;28;20025;-49
2022/09/25 03:53:00;;;;;;;1.73;1.52;;;22.30;64.40;;;;;;5053270;28;20037;-53
2022/09/25 03:55:26;;;;;;;2.38;1.63;;;22.30;64.30;;;;;;5034283;28;20038;-54
2022/09/25 03:57:52;;;;;;;2.63;1.65;;;22.30;64.30;;;;;;5044222;28;20111;-53
2022/09/25 04:00:17;;;;;;;2.30;1.67;;;22.40;64.40;;;;;;5052415;28;20523;-55
2022/09/25 04:02:43;;;;;;;2.13;1.90;;;22.40;64.30;;;;;;5052527;28;20142;-56
2022/09/25 04:05:08;;;;;;;1.98;1.48;;;22.30;64.20;;;;;;5053223;28;20033;-49
2022/09/25 04:07:34;;;;;;;2.47;1.95;;;22.30;64.20;;;;;;5033884;28;20033;-49
2022/09/25 04:10:00;;;;;;;2.05;1.85;;;22.40;64.30;;;;;;5049103;28;20115;-50
2022/09/25 04:12:26;;;;;;;2.17;1.60;;;22.30;64.20;;;;;;5049288;28;20112;-53
2022/09/25 04:14:51;;;;;;;2.67;1.77;;;22.30;64.10;;;;;;5051925;28;20029;-51
2022/09/25 04:17:17;;;;;;;3.63;2.22;;;22.40;64.10;;;;;;5053503;28;20436;-55
2022/09/25 04:19:43;;;;;;;2.28;1.90;;;22.30;64.00;;;;;;5051887;28;20048;-54
2022/09/25 04:22:08;;;;;;;2.03;1.60;;;22.40;64.00;;;;;;5052187;28;20036;-55
2022/09/25 04:24:49;;;;;;;1.98;1.65;;;22.30;64.60;;;;;;5052351;28;20057;-54
2022/09/25 04:27:21;;;;;;;2.45;1.90;;;22.30;63.90;;;;;;5053072;28;20040;-54
2022/09/25 04:29:47;;;;;;;2.08;1.73;;;22.30;63.90;;;;;;5049505;28;20029;-50
2022/09/25 04:34:58;;;;;;;2.58;1.73;;;22.30;63.80;;;;;;5052100;28;20036;-50
2022/09/25 04:37:25;;;;;;;1.88;1.65;;;22.30;63.70;;;;;;5052897;28;20037;-51
2022/09/25 04:39:55;;;;;;;2.17;1.60;;;22.30;63.70;;;;;;5050948;28;20443;-51
2022/09/25 04:42:23;;;;;;;2.70;1.83;;;22.30;63.70;;;;;;5052947;28;20043;-55
2022/09/25 04:44:54;;;;;;;2.05;1.55;;;22.30;63.70;;;;;;5051805;28;20025;-54
2022/09/25 04:47:21;;;;;;;1.95;1.77;;;22.30;63.60;;;;;;5046240;28;20385;-50
2022/09/25 04:49:47;;;;;;;2.75;2.03;;;22.30;63.70;;;;;;5050786;28;20111;-52
2022/09/25 04:52:14;;;;;;;3.53;1.70;;;22.30;63.60;;;;;;5049567;28;20100;-56
2022/09/25 04:54:41;;;;;;;1.90;1.58;;;22.30;63.50;;;;;;5051641;28;20033;-47
2022/09/25 04:57:08;;;;;;;2.38;1.50;;;22.30;63.50;;;;;;5048085;28;20087;-56
2022/09/25 04:59:34;;;;;;;2.90;1.83;;;22.30;63.50;;;;;;5050770;28;20037;-56
2022/09/25 05:01:59;;;;;;;2.20;1.77;;;22.30;63.40;;;;;;5049213;28;20044;-54
2022/09/25 05:04:25;;;;;;;1.55;1.42;;;22.30;63.50;;;;;;5050128;28;20059;-54
2022/09/25 05:06:50;;;;;;;2.38;1.80;;;22.30;63.50;;;;;;5042385;28;20388;-53
2022/09/25 05:09:16;;;;;;;2.67;2.00;;;22.30;63.40;;;;;;5050589;28;20029;-49
2022/09/25 05:11:42;;;;;;;1.70;1.50;;;22.30;63.30;;;;;;5043521;28;20025;-50
2022/09/25 05:14:07;;;;;;;2.40;1.77;;;22.30;63.30;;;;;;5050283;28;20108;-53
2022/09/25 05:16:33;;;;;;;2.58;1.80;;;22.30;63.20;;;;;;5051908;28;20020;-53
2022/09/25 05:18:59;;;;;;;1.95;1.60;;;22.30;63.20;;;;;;5046046;28;20075;-55
2022/09/25 05:21:25;;;;;;;2.63;1.70;;;22.30;63.20;;;;;;5052553;28;20029;-53
2022/09/25 05:23:50;;;;;;;2.40;2.05;;;22.30;63.10;;;;;;5050980;28;20028;-52
2022/09/25 05:26:16;;;;;;;2.00;1.60;;;22.30;63.10;;;;;;5052200;28;20029;-55
2022/09/25 05:28:42;;;;;;;2.88;2.17;;;22.30;63.10;;;;;;5049698;28;20060;-47
2022/09/25 05:31:08;;;;;;;1.90;1.70;;;22.30;63.00;;;;;;5051651;28;20052;-56
2022/09/25 05:33:34;;;;;;;2.97;1.95;;;22.20;63.00;;;;;;5051177;28;20025;-54
2022/09/25 05:36:04;;;;;;;2.00;1.65;;;22.30;63.00;;;;;;5044659;28;20111;-55
2022/09/25 05:38:35;;;;;;;2.55;1.90;;;22.30;63.00;;;;;;5046940;28;20052;-56
2022/09/25 05:41:05;;;;;;;2.50;1.80;;;22.30;62.90;;;;;;5051360;28;20054;-56
2022/09/25 05:43:32;;;;;;;1.60;1.50;;;22.30;62.90;;;;;;5050912;28;20025;-55
2022/09/25 05:45:58;;;;;;;2.00;1.77;;;22.30;62.90;;;;;;5049436;28;20036;-53
2022/09/25 05:48:24;;;;;;;2.38;1.70;;;22.30;62.90;;;;;;5051163;28;20064;-55
2022/09/25 05:50:54;;;;;;;1.60;1.40;;;22.20;62.80;;;;;;5050932;28;20065;-54
2022/09/25 05:53:20;;;;;;;2.83;1.90;;;22.30;62.80;;;;;;5049764;28;20021;-54
2022/09/25 05:55:53;;;;;;;1.95;1.58;;;22.30;62.80;;;;;;5049955;28;20040;-55
2022/09/25 05:58:20;;;;;;;2.67;1.77;;;22.20;62.70;;;;;;5050982;28;20033;-53
2022/09/25 06:00:46;;;;;;;1.75;1.38;;;22.30;62.70;;;;;;5050158;28;20410;-54
2022/09/25 06:03:13;;;;;;;3.00;1.95;;;22.30;62.70;;;;;;5051151;28;20070;-53
2022/09/25 06:05:43;;;;;;;2.30;1.80;;;22.30;62.70;;;;;;5051016;28;20100;-56
2022/09/25 06:08:08;;;;;;;1.88;1.58;;;22.30;62.60;;;;;;5043363;28;20036;-56
2022/09/25 06:10:34;;;;;;;2.47;1.65;;;22.30;62.50;;;;;;5044466;28;20477;-53
2022/09/25 06:13:03;;;;;;;2.15;1.50;;;22.20;62.40;;;;;;5041928;28;20035;-52
2022/09/25 06:15:35;;;;;;;3.33;1.95;;;22.30;62.50;;;;;;5045314;28;20030;-55
2022/09/25 06:18:01;;;;;;;2.00;1.80;;;22.20;62.40;;;;;;5042463;28;20120;-54
2022/09/25 06:20:26;;;;;;;3.72;1.60;;;22.30;62.40;;;;;;5042747;28;20132;-56
2022/09/25 06:22:54;;;;;;;1.27;1.17;;;22.30;62.40;;;;;;5043646;28;20052;-53
2022/09/25 06:25:22;;;;;;;1.73;1.40;;;22.30;62.30;;;;;;5041596;28;20032;-59
2022/09/25 06:27:50;;;;;;;2.20;1.50;;;22.20;62.30;;;;;;5039565;28;20484;-56
2022/09/25 06:30:17;;;;;;;1.67;1.40;;;22.20;62.20;;;;;;5042012;28;20021;-55
2022/09/25 06:32:43;;;;;;;1.88;1.55;;;22.20;62.20;;;;;;5045415;28;20389;-46
2022/09/25 06:35:09;;;;;;;2.00;1.55;;;22.30;62.30;;;;;;5043695;28;20201;-55
2022/09/25 06:37:34;;;;;;;1.77;1.48;;;22.20;62.20;;;;;;5039414;28;20041;-51
2022/09/25 06:40:00;;;;;;;1.50;1.35;;;22.30;62.20;;;;;;5045385;28;20100;-51
2022/09/25 06:42:26;;;;;;;1.60;1.23;;;22.30;62.10;;;;;;5042573;28;20067;-51
2022/09/25 06:44:51;;;;;;;1.92;1.55;;;22.30;62.10;;;;;;5044151;28;20068;-54
2022/09/25 06:47:17;;;;;;;2.75;1.45;;;22.30;62.10;;;;;;5041468;28;20037;-53
2022/09/25 06:49:42;;;;;;;1.77;1.52;;;22.30;62.10;;;;;;5045460;28;20037;-49
2022/09/25 06:52:08;;;;;;;2.00;1.80;;;22.40;62.00;;;;;;5040742;28;20572;-54
2022/09/25 06:54:34;;;;;;;2.17;1.80;;;22.40;62.60;;;;;;5043601;28;20057;-54
2022/09/25 06:56:59;;;;;;;2.80;1.52;;;22.40;61.80;;;;;;5040575;28;20032;-55
2022/09/25 06:59:25;;;;;;;1.92;1.73;;;22.40;61.80;;;;;;5043668;28;20371;-51
2022/09/25 07:01:51;;;;;;;1.50;1.35;;;22.40;61.70;;;;;;5037938;28;20076;-47
2022/09/25 07:04:16;;;;;;;2.28;1.65;;;22.50;61.60;;;;;;5042425;28;20044;-51
2022/09/25 07:06:42;;;;;;;1.42;1.33;;;22.50;61.60;;;;;;5041984;28;20726;-47
2022/09/25 07:09:08;;;;;;;1.45;1.20;;;22.50;61.50;;;;;;5045376;28;20029;-53
2022/09/25 07:11:34;;;;;;;1.45;1.23;;;22.50;61.40;;;;;;5044993;28;20057;-49
2022/09/25 07:14:00;;;;;;;1.92;1.45;;;22.50;61.40;;;;;;5042839;28;20044;-53
2022/09/25 07:16:28;;;;;;;2.95;1.40;;;22.50;61.30;;;;;;5042821;28;20098;-51
2022/09/25 07:18:58;;;;;;;2.25;1.20;;;22.50;61.30;;;;;;5041879;28;20057;-50
2022/09/25 07:21:26;;;;;;;2.17;1.40;;;22.50;61.30;;;;;;5044447;28;20461;-54
2022/09/25 07:23:52;;;;;;;2.13;1.50;;;22.50;61.20;;;;;;5025630;28;20044;-51
2022/09/25 07:26:21;;;;;;;2.00;1.70;;;22.50;61.20;;;;;;5041372;28;20401;-51
2022/09/25 07:28:48;;;;;;;1.75;1.42;;;22.50;61.20;;;;;;5040135;28;20033;-50
2022/09/25 07:31:20;;;;;;;1.60;1.45;;;22.50;61.00;;;;;;5041849;28;20029;-55
2022/09/25 07:33:46;;;;;;;1.85;1.10;;;22.50;61.60;;;;;;5041101;28;20045;-53
2022/09/25 07:36:13;;;;;;;3.90;1.35;;;22.50;61.00;;;;;;5039330;28;20044;-51
2022/09/25 07:38:40;;;;;;;2.30;1.38;;;22.60;61.00;;;;;;5041103;28;20061;-54
2022/09/25 07:41:07;;;;;;;1.90;1.67;;;22.50;60.90;;;;;;5045333;28;20436;-53
2022/09/25 07:43:33;;;;;;;1.70;1.50;;;22.60;61.00;;;;;;5043619;28;20079;-53
2022/09/25 07:45:59;;;;;;;1.60;1.30;;;22.60;60.90;;;;;;5044881;28;20036;-53
2022/09/25 07:48:25;;;;;;;3.28;1.50;;;22.60;60.90;;;;;;5050609;28;20044;-49
2022/09/25 07:50:52;;;;;;;2.70;1.20;;;22.60;60.90;;;;;;5051645;28;20021;-53
2022/09/25 07:53:17;;;;;;;1.67;1.48;;;22.60;60.80;;;;;;5049227;28;20101;-53
2022/09/25 07:55:44;;;;;;;1.90;1.33;;;22.60;61.40;;;;;;5035210;28;20461;-45
2022/09/25 07:58:10;;;;;;;5.45;2.22;;;22.60;60.80;;;;;;5051243;28;20170;-51
2022/09/25 08:00:36;;;;;;;1.70;1.60;;;22.70;60.80;;;;;;5050485;28;20108;-50
2022/09/25 08:03:02;;;;;;;1.63;1.50;;;22.70;60.70;;;;;;5049083;28;20632;-50
2022/09/25 08:05:28;;;;;;;2.70;1.85;;;22.80;60.60;;;;;;5052819;28;20021;-54
2022/09/25 08:07:54;;;;;;;1.67;1.40;;;22.80;60.40;;;;;;5049111;28;20051;-51
2022/09/25 08:10:20;;;;;;;1.88;1.52;;;22.80;60.20;;;;;;5046915;28;20033;-51
2022/09/25 08:12:46;;;;;;;10.38;2.72;;;22.80;60.30;;;;;;5050864;28;20526;-46
2022/09/25 08:15:13;;;;;;;8.85;3.25;;;22.80;60.60;;;;;;5048789;28;20116;-55
2022/09/25 08:17:39;;;;;;;18.50;4.97;;;22.80;60.60;;;;;;5050187;28;20462;-51
2022/09/25 08:20:06;;;;;;;19.90;6.13;;;22.90;60.80;;;;;;5044767;28;20037;-55
2022/09/25 08:22:32;;;;;;;13.52;5.00;;;22.90;61.30;;;;;;5050364;28;20055;-54
2022/09/25 08:25:01;;;;;;;23.15;6.45;;;23.00;61.60;;;;;;5050319;28;20091;-51
2022/09/25 08:27:26;;;;;;;23.10;6.57;;;23.00;61.80;;;;;;5048661;28;20107;-53
2022/09/25 08:29:52;;;;;;;20.33;6.18;;;23.00;61.70;;;;;;5050088;28;20552;-50
2022/09/25 08:32:17;;;;;;;24.35;6.07;;;23.00;61.60;;;;;;5047666;28;20096;-50
2022/09/25 08:34:43;;;;;;;15.55;5.65;;;23.00;61.50;;;;;;5049597;28;20132;-48
2022/09/25 08:37:09;;;;;;;17.90;5.80;;;23.00;61.40;;;;;;5047190;28;20462;-51
2022/09/25 08:39:35;;;;;;;18.98;6.20;;;23.00;61.40;;;;;;5051896;28;20072;-50
2022/09/25 08:42:01;;;;;;;14.02;5.53;;;23.10;61.40;;;;;;5047490;28;20480;-49
2022/09/25 08:44:42;;;;;;;11.20;4.78;;;23.10;61.40;;;;;;5051775;28;20465;-52
2022/09/25 08:50:18;;;;;;;11.68;4.78;;;23.10;61.30;;;;;;5049270;28;20060;-51
2022/09/25 08:52:49;;;;;;;11.93;4.28;;;23.10;61.10;;;;;;5047896;28;20033;-45
2022/09/25 08:56:13;;;;;;;13.68;5.13;;;23.10;61.10;;;;;;5050600;28;20033;-50
2022/09/25 08:58:25;;;;;;;7.53;3.47;;;23.20;61.10;;;;;;5050501;28;20389;-48
2022/09/25 09:00:58;;;;;;;10.55;4.35;;;23.20;61.00;;;;;;5047330;28;20049;-52
2022/09/25 09:03:29;;;;;;;13.73;4.22;;;23.20;60.90;;;;;;5050752;28;20024;-51
2022/09/25 09:06:16;;;;;;;12.60;3.50;;;23.20;60.80;;;;;;5049564;28;20059;-52
2022/09/25 09:08:46;;;;;;;9.18;3.85;;;23.20;60.60;;;;;;5037367;28;20383;-54
2022/09/25 09:11:14;;;;;;;10.25;3.65;;;23.20;60.60;;;;;;5045494;28;20405;-59
2022/09/25 09:14:04;;;;;;;9.00;3.30;;;23.20;60.60;;;;;;5051206;28;20477;-60
2022/09/25 09:16:40;;;;;;;8.30;3.70;;;23.20;60.70;;;;;;5048370;28;20052;-59
2022/09/25 09:19:06;;;;;;;11.98;4.35;;;23.20;61.20;;;;;;5050951;28;20076;-60
2022/09/25 09:21:38;;;;;;;7.70;3.10;;;23.20;60.90;;;;;;5052134;28;20477;-53
2022/09/25 09:24:16;;;;;;;7.88;3.22;;;23.10;60.90;;;;;;5047284;28;20496;-60
2022/09/25 09:27:02;;;;;;;8.57;3.83;;;23.10;61.10;;;;;;5036193;28;20036;-60
2022/09/25 09:29:53;;;;;;;9.15;3.47;;;23.10;61.00;;;;;;5049939;28;20017;-60
2022/09/25 09:32:32;;;;;;;7.00;3.20;;;23.00;61.20;;;;;;5049549;28;20132;-57
2022/09/25 09:34:58;;;;;;;11.73;3.20;;;23.00;61.00;;;;;;5049730;28;20059;-58
2022/09/25 09:37:50;;;;;;;9.50;2.75;;;23.10;60.90;;;;;;5050069;28;20417;-58
2022/09/25 09:40:25;;;;;;;;;;;23.10;60.80;;;;;;5049657;28;20370;-51
2022/09/25 09:43:02;;;;;;;6.28;2.70;;;23.10;60.60;;;;;;5047215;28;20325;-57
2022/09/25 09:45:53;;;;;;;8.65;3.42;;;23.10;60.50;;;;;;5048898;28;20068;-58
2022/09/25 09:48:38;;;;;;;7.55;3.25;;;23.10;60.50;;;;;;5048015;28;20032;-55
2022/09/25 09:51:22;;;;;;;5.47;2.55;;;23.10;60.40;;;;;;5039354;28;20037;-59
2022/09/25 09:53:49;;;;;;;12.95;3.50;;;23.10;60.30;;;;;;5046792;28;20029;-52
2022/09/25 09:56:19;;;;;;;5.25;3.15;;;23.20;60.40;;;;;;5050754;28;20539;-62
2022/09/25 09:58:58;;;;;;;7.00;2.47;;;23.10;60.20;;;;;;5021191;28;20583;-52
2022/09/25 10:01:28;;;;;;;7.93;3.03;;;23.20;60.40;;;;;;5049242;28;20390;-57
2022/09/25 10:04:07;;;;;;;5.00;2.92;;;23.20;60.00;;;;;;5047896;28;20482;-55
2022/09/25 10:06:38;;;;;;;7.45;3.45;;;23.20;59.80;;;;;;5049128;28;20036;-57
2022/09/25 10:09:05;;;;;;;7.53;3.17;;;23.20;59.60;;;;;;5043555;28;20044;-57
2022/09/25 10:11:32;;;;;;;8.45;2.83;;;23.20;59.60;;;;;;5050022;28;20033;-58
2022/09/25 10:14:02;;;;;;;7.13;2.90;;;23.20;59.40;;;;;;5045433;28;20064;-58
2022/09/25 10:16:29;;;;;;;5.45;2.55;;;23.20;59.40;;;;;;5047988;28;20097;-57
2022/09/25 10:19:22;;;;;;;5.63;2.63;;;23.10;59.20;;;;;;5047139;28;20048;-55
2022/09/25 10:21:54;;;;;;;5.28;2.13;;;23.20;59.10;;;;;;5030969;28;20458;-50
2022/09/25 10:24:52;;;;;;;5.10;2.92;;;23.20;59.40;;;;;;5048600;28;20045;-55
2022/09/25 10:27:37;;;;;;;3.63;2.08;;;23.10;59.00;;;;;;5049426;28;20089;-55
2022/09/25 10:30:09;;;;;;;6.65;2.58;;;23.20;59.10;;;;;;5041580;28;20485;-58
2022/09/25 10:32:44;;;;;;;;;;;23.20;59.10;;;;;;5048329;28;20033;-57
2022/09/25 10:35:36;;;;;;;7.43;2.35;;;23.20;59.00;;;;;;5043998;28;19936;-53
2022/09/25 10:38:03;;;;;;;4.72;2.90;;;23.20;59.10;;;;;;5035692;28;20132;-53
2022/09/25 10:40:33;;;;;;;6.78;2.35;;;23.20;58.70;;;;;;5049015;28;20032;-55
2022/09/25 10:43:05;;;;;;;5.10;2.60;;;23.20;58.70;;;;;;5048618;28;20028;-60
2022/09/25 10:45:33;;;;;;;5.78;2.50;;;23.20;58.80;;;;;;5048049;28;20048;-58
2022/09/25 10:51:03;;;;;;;4.93;2.60;;;23.30;59.00;;;;;;5046776;28;20059;-56
2022/09/25 10:53:29;;;;;;;7.93;2.40;;;23.30;58.90;;;;;;5047345;28;20026;-54
2022/09/25 10:56:03;;;;;;;5.28;2.38;;;23.30;59.00;;;;;;5049489;28;20370;-58
2022/09/25 10:58:38;;;;;;;4.82;2.28;;;23.30;58.90;;;;;;5043254;28;20412;-51
2022/09/25 11:01:07;;;;;;;17.45;2.55;;;23.30;59.10;;;;;;5039145;28;20047;-56
2022/09/25 11:03:40;;;;;;;6.07;2.58;;;23.20;59.00;;;;;;5038715;28;20128;-57
2022/09/25 11:06:26;;;;;;;6.07;2.42;;;23.20;59.10;;;;;;5048438;28;20041;-56
2022/09/25 11:09:04;;;;;;;4.35;2.53;;;23.20;59.20;;;;;;5044123;28;20378;-49
2022/09/25 11:11:30;;;;;;;3.33;2.30;;;23.20;59.90;;;;;;5048682;28;20417;-59
2022/09/25 11:13:59;;;;;;;4.75;2.35;;;23.30;59.80;;;;;;5048702;28;20039;-58
2022/09/25 11:16:52;;;;;;;4.00;2.60;;;23.30;59.60;;;;;;5052935;28;20401;-58
2022/09/25 11:19:32;;;;;;;8.52;3.67;;;23.30;59.80;;;;;;5046023;28;20045;-56
2022/09/25 11:22:15;;;;;;;8.05;3.92;;;23.20;60.10;;;;;;5051158;28;20044;-57
2022/09/25 11:25:10;;;;;;;7.68;4.40;;;23.20;60.20;;;;;;5046229;28;20028;-59
2022/09/25 11:27:41;;;;;;;8.00;3.80;;;23.20;60.00;;;;;;5052799;28;20029;-58
2022/09/25 11:30:16;;;;;;;10.35;3.45;;;23.20;60.00;;;;;;5045127;28;20052;-57
2022/09/25 11:33:10;;;;;;;5.97;3.40;;;23.20;59.70;;;;;;5053142;28;20421;-58
2022/09/25 11:35:47;;;;;;;9.60;3.05;;;23.30;59.60;;;;;;5046995;28;20112;-58
2022/09/25 11:38:18;;;;;;;8.25;3.45;;;23.30;59.50;;;;;;5051273;28;20083;-59
2022/09/25 11:43:50;;;;;;;9.93;3.35;;;23.30;59.60;;;;;;5047729;28;20402;-57
2022/09/25 11:46:23;;;;;;;6.63;2.90;;;23.30;59.80;;;;;;5052626;28;20120;-59
2022/09/25 11:49:17;;;;;;;5.72;3.20;;;23.30;59.60;;;;;;5040648;28;20065;-47
2022/09/25 11:52:23;;;;;;;10.60;4.38;;;23.20;59.20;;;;;;5048254;28;20178;-58
2022/09/25 11:55:02;;;;;;;6.82;3.17;;;23.20;59.20;;;;;;5046460;28;20025;-47
2022/09/25 11:57:49;;;;;;;10.98;3.15;;;23.20;59.00;;;;;;5051395;28;20492;-57
2022/09/25 12:00:27;;;;;;;14.65;4.57;;;23.20;58.80;;;;;;5050778;28;20057;-58
2022/09/25 12:03:00;;;;;;;7.15;2.92;;;23.20;59.00;;;;;;5051853;28;20076;-53
2022/09/25 12:06:03;;;;;;;5.32;2.97;;;23.20;59.10;;;;;;5044494;28;20071;-57
2022/09/25 12:08:43;;;;;;;11.90;4.18;;;23.30;59.10;;;;;;5049229;28;20043;-57
2022/09/25 12:11:44;;;;;;;6.47;3.60;;;23.30;59.00;;;;;;5050414;28;20061;-57
2022/09/25 12:14:16;;;;;;;7.88;3.50;;;23.30;59.00;;;;;;5046992;28;20355;-51
2022/09/25 12:16:50;;;;;;;;;;;23.30;58.90;;;;;;5031318;28;20095;-57
2022/09/25 12:19:34;;;;;;;7.40;3.47;;;23.30;58.80;;;;;;5050319;28;20353;-58
2022/09/25 12:22:38;;;;;;;6.75;2.58;;;23.30;58.90;;;;;;5048818;28;20443;-58
2022/09/25 12:25:36;;;;;;;4.95;2.67;;;23.30;58.70;;;;;;5045820;28;20057;-57
2022/09/25 12:28:29;;;;;;;5.28;3.22;;;23.30;58.70;;;;;;5045551;28;20033;-54
2022/09/25 12:31:00;;;;;;;5.72;2.97;;;23.40;58.60;;;;;;5051943;28;20044;-58
2022/09/25 12:33:51;;;;;;;8.40;2.95;;;23.30;58.50;;;;;;5049013;28;20029;-56
2022/09/25 12:36:19;;;;;;;4.00;2.75;;;23.40;58.50;;;;;;5051783;28;20063;-57
2022/09/25 12:38:54;;;;;;;5.50;2.75;;;23.40;58.30;;;;;;5049908;28;20055;-57
2022/09/25 12:41:33;;;;;;;7.07;3.53;;;23.40;58.70;;;;;;5041250;28;20072;-50
2022/09/25 12:44:20;;;;;;;6.53;3.45;;;23.30;59.00;;;;;;5038177;28;20104;-56
2022/09/25 12:46:56;;;;;;;6.13;3.22;;;23.30;59.30;;;;;;5042806;28;20704;-55
2022/09/25 12:49:37;;;;;;;4.90;3.08;;;23.30;59.60;;;;;;5043853;28;20037;-51
2022/09/25 12:52:18;;;;;;;6.32;3.42;;;23.30;59.50;;;;;;5041652;28;20045;-57
2022/09/25 12:55:37;;;;;;;5.75;3.58;;;23.30;59.80;;;;;;5047418;28;20029;-48
2022/09/25 12:58:20;;;;;;;9.15;4.07;;;23.30;59.60;;;;;;5037796;28;20137;-49
2022/09/25 13:00:51;;;;;;;10.48;3.83;;;23.40;59.60;;;;;;5046521;28;20136;-54
2022/09/25 13:03:26;;;;;;;7.65;3.88;;;23.40;59.40;;;;;;5043732;28;20021;-59
2022/09/25 13:06:20;;;;;;;5.97;2.78;;;23.40;59.40;;;;;;5044634;28;20136;-48
2022/09/25 13:09:06;;;;;;;6.88;3.45;;;23.40;59.30;;;;;;5045683;28;20025;-58
2022/09/25 13:11:44;;;;;;;6.63;3.25;;;23.40;59.30;;;;;;5040950;28;20368;-57
2022/09/25 13:14:34;;;;;;;5.20;3.20;;;23.40;59.10;;;;;;5043889;28;20056;-58
2022/09/25 13:17:00;;;;;;;7.18;2.90;;;23.40;58.90;;;;;;5042578;28;20037;-59
2022/09/25 13:19:33;;;;;;;6.38;2.65;;;23.40;58.80;;;;;;5044749;28;20041;-49
2022/09/25 13:22:20;;;;;;;8.57;3.10;;;23.40;58.80;;;;;;5045973;28;20409;-58
2022/09/25 13:24:51;;;;;;;6.15;3.10;;;23.40;58.80;;;;;;5049047;28;20355;-58
2022/09/25 13:27:23;;;;;;;4.53;2.88;;;23.40;58.60;;;;;;5048838;28;20114;-58
2022/09/25 13:29:54;;;;;;;;;;;23.40;58.70;;;;;;5044888;28;20033;-59
2022/09/25 13:32:23;;;;;;;3.63;3.05;;;23.40;58.70;;;;;;5050102;28;19909;-52
2022/09/25 13:34:56;;;;;;;4.45;3.10;;;23.40;58.60;;;;;;5043504;28;20489;-58
2022/09/25 13:37:35;;;;;;;4.78;3.28;;;23.40;58.60;;;;;;5027621;28;20059;-56